Time;durP1;ratioP1;P1;durP2;ratioP2;P2;SDS_P1;SDS_P2;PMS_P1;PMS_P2;Temp;Humidity;BMP_temperature;BMP_pressure;BME280_temperature;BME280_humidity;BME280_pressure;Samples;Min_cycle;Max_cycle;Signal;HPM_P1;HPM_P2
2022/11/11 00:02:31;;;;;;;26.17;16.85;;;;;;;30.10;72.69;100953.00;4995411;28;69264;-42
2022/11/11 00:05:20;;;;;;;24.90;17.27;;;;;;;30.16;72.99;100955.69;5001236;28;65778;-41
2022/11/11 00:08:10;;;;;;;19.90;14.93;;;;;;;30.23;69.26;100950.28;4991232;28;70459;-42
2022/11/11 00:11:08;;;;;;;18.45;14.23;;;;;;;29.79;68.93;100879.66;5000588;28;65767;-42
2022/11/11 00:13:58;;;;;;;17.30;14.05;;;;;;;30.35;68.79;100970.22;4995269;28;70377;-42
2022/11/11 00:26:21;;;;;;;15.65;13.38;;;;;;;30.58;68.36;100980.50;4995786;28;69854;-43
2022/11/11 00:29:25;;;;;;;13.27;12.23;;;;;;;30.63;69.04;100979.88;4993460;28;65329;-42
2022/11/11 00:32:25;;;;;;;13.85;12.60;;;;;;;30.68;69.04;100975.47;4991135;28;70197;-42
2022/11/11 00:41:29;;;;;;;13.63;12.40;;;;;;;30.66;68.59;100972.16;4994840;28;66648;-43
2022/11/11 00:44:18;;;;;;;13.27;12.18;;;;;;;30.79;68.20;100992.09;4998886;28;70661;-43
2022/11/11 00:53:34;;;;;;;12.63;11.52;;;;;;;30.89;68.57;101024.97;4991051;28;65857;-43
2022/11/11 00:56:24;;;;;;;12.95;12.05;;;;;;;30.84;68.35;101011.22;4996034;28;69278;-44
2022/11/11 00:59:13;;;;;;;13.43;11.43;;;;;;;30.93;68.95;101020.78;5001675;28;66514;-43
2022/11/11 01:02:02;;;;;;;12.80;11.68;;;;;;;30.98;68.49;101033.66;4999607;28;69797;-42
2022/11/11 01:04:51;;;;;;;14.93;12.68;;;;;;;30.99;68.47;101036.16;5000105;28;65444;-42
2022/11/11 01:07:40;;;;;;;12.77;11.77;;;;;;;31.02;68.69;101048.44;4996583;28;69223;-43
2022/11/11 01:10:38;;;;;;;12.77;11.60;;;;;;;31.04;68.92;101044.47;4998233;28;66623;-43
2022/11/11 01:13:32;;;;;;;12.13;11.23;;;;;;;30.86;68.44;101014.56;4995176;28;70654;-43
2022/11/11 01:16:25;;;;;;;13.23;11.85;;;;;;;31.10;68.49;101049.00;4994175;28;65919;-42
2022/11/11 01:19:14;;;;;;;15.07;12.33;;;;;;;31.08;68.73;101051.09;4993578;28;69442;-43
2022/11/11 01:22:03;;;;;;;13.07;11.85;;;;;;;31.09;68.87;101041.94;4997426;28;66563;-43
2022/11/11 01:24:52;;;;;;;14.88;11.27;;;;;;;31.16;68.75;101052.72;4998914;28;70526;-42
2022/11/11 01:27:41;;;;;;;12.75;11.55;;;;;;;31.11;68.75;101047.97;4998572;28;65321;-43
2022/11/11 01:30:32;;;;;;;12.95;11.82;;;;;;;31.05;68.30;101029.88;4997207;28;70182;-43
2022/11/11 01:33:22;;;;;;;13.00;11.80;;;;;;;31.12;68.32;101052.34;4995181;28;66016;-43
2022/11/11 01:36:12;;;;;;;13.60;12.27;;;;;;;31.24;68.76;101070.63;4998269;28;70422;-43
2022/11/11 01:39:01;;;;;;;13.20;11.88;;;;;;;31.26;68.68;101071.22;4995702;28;66442;-42
2022/11/11 01:41:50;;;;;;;13.82;12.55;;;;;;;31.27;68.52;101070.19;4989219;28;69262;-42
2022/11/11 01:44:45;;;;;;;13.10;11.82;;;;;;;30.06;68.93;100866.88;4986738;28;66547;-43
2022/11/11 01:51:05;;;;;;;15.15;12.18;;;;;;;31.23;68.78;101061.66;4994164;28;66457;-42
2022/11/11 01:54:01;;;;;;;13.77;12.48;;;;;;;30.89;69.06;100995.16;4998171;28;70063;-42
2022/11/11 01:57:13;;;;;;;13.48;12.18;;;;;;;30.91;68.86;100990.38;4995994;28;66944;-42
2022/11/11 02:00:07;;;;;;;12.48;11.27;;;;;;;31.41;69.02;101082.63;4997997;28;69627;-41
2022/11/11 02:03:09;;;;;;;13.77;12.45;;;;;;;31.05;69.61;101024.44;4986970;28;66284;-41
2022/11/11 02:05:59;;;;;;;19.57;13.27;;;;;;;31.42;69.29;101075.31;4999955;28;70085;-40
2022/11/11 02:08:48;;;;;;;15.10;12.88;;;;;;;31.46;69.44;101063.81;4998800;28;66661;-41
2022/11/11 02:14:52;;;;;;;13.45;11.57;;;;;;;31.51;69.20;101066.72;4989682;28;66281;-40
2022/11/11 02:17:41;;;;;;;14.13;12.70;;;;;;;31.55;69.40;101070.63;4997831;28;70126;-41
2022/11/11 02:20:35;;;;;;;14.98;13.57;;;;;;;31.08;69.55;100988.78;5000016;28;66777;-41
2022/11/11 02:23:36;;;;;;;14.10;12.70;;;;;;;31.61;69.51;101074.34;4991414;28;69257;-42
2022/11/11 02:26:26;;;;;;;14.38;12.73;;;;;;;31.63;69.59;101074.94;4998286;28;66121;-40
2022/11/11 02:29:19;;;;;;;14.25;12.80;;;;;;;31.51;69.54;101047.72;4990156;28;68650;-40
2022/11/11 02:32:08;;;;;;;14.85;13.35;;;;;;;31.68;69.56;101085.13;4995672;28;66535;-40
2022/11/11 02:34:57;;;;;;;14.43;12.90;;;;;;;31.69;69.16;101087.63;4989903;28;70296;-40
2022/11/11 02:37:50;;;;;;;13.50;12.20;;;;;;;31.58;69.37;101064.75;4997953;28;66538;-40
2022/11/11 02:43:49;;;;;;;13.55;12.35;;;;;;;31.71;69.47;101087.41;4989171;28;66765;-40
2022/11/11 02:46:38;;;;;;;13.18;12.02;;;;;;;31.78;69.02;101085.47;4990112;28;69938;-40
2022/11/11 02:49:28;;;;;;;16.30;12.45;;;;;;;31.78;69.13;101072.72;4994681;28;66385;-40
2022/11/11 02:52:17;;;;;;;13.43;12.10;;;;;;;31.80;69.16;101072.50;4996428;28;69742;-41
2022/11/11 02:55:08;;;;;;;15.50;13.07;;;;;;;31.83;69.01;101072.88;4993969;28;65425;-40
2022/11/11 02:57:58;;;;;;;13.25;12.07;;;;;;;31.85;68.69;101071.84;4999989;28;69733;-41
2022/11/11 03:00:46;;;;;;;17.23;13.02;;;;;;;31.88;68.76;101071.41;4995886;28;66240;-41
2022/11/11 03:03:36;;;;;;;13.77;12.40;;;;;;;31.88;69.21;101066.81;5003616;28;70398;-41
2022/11/11 03:06:25;;;;;;;12.95;11.85;;;;;;;31.90;68.71;101072.00;4992149;28;66410;-41
2022/11/11 03:09:15;;;;;;;13.95;12.65;;;;;;;31.90;69.01;101075.56;5000916;28;69306;-40
2022/11/11 03:12:04;;;;;;;12.48;11.40;;;;;;;31.92;68.89;101062.63;5002856;28;66668;-41
2022/11/11 03:14:54;;;;;;;13.75;12.45;;;;;;;31.93;68.94;101053.44;4991381;28;69238;-41
2022/11/11 03:17:43;;;;;;;14.02;12.48;;;;;;;31.94;68.85;101052.38;4999228;28;66535;-41
2022/11/11 03:23:40;;;;;;;14.05;12.88;;;;;;;31.98;68.83;101050.88;4997392;28;66767;-41
2022/11/11 03:26:29;;;;;;;14.02;12.57;;;;;;;32.01;68.80;101053.16;4997080;28;69498;-40
2022/11/11 03:29:18;;;;;;;15.05;13.52;;;;;;;31.65;68.54;100990.66;5001269;28;66397;-40
2022/11/11 03:32:08;;;;;;;14.80;13.50;;;;;;;31.96;68.51;101025.03;4999552;28;70330;-40
2022/11/11 03:34:57;;;;;;;15.30;13.90;;;;;;;32.09;68.42;101043.03;4999921;28;66460;-41
2022/11/11 03:40:55;;;;;;;14.13;12.88;;;;;;;31.70;68.25;100956.38;4995757;28;65630;-40
2022/11/11 03:43:44;;;;;;;18.80;13.80;;;;;;;32.06;68.02;101011.75;5000958;28;69693;-40
2022/11/11 03:46:34;;;;;;;14.05;12.95;;;;;;;32.19;67.94;101030.63;5002194;28;65457;-41
2022/11/11 03:49:23;;;;;;;13.98;12.57;;;;;;;32.21;68.00;101016.84;4993598;28;70221;-42
2022/11/11 03:52:13;;;;;;;14.82;13.05;;;;;;;32.18;67.47;101006.41;4989532;28;65800;-41
2022/11/11 03:55:02;;;;;;;12.18;11.18;;;;;;;32.25;67.39;101002.56;4999910;28;70151;-41
2022/11/11 03:57:51;;;;;;;13.43;12.02;;;;;;;32.28;67.11;100996.69;4998466;28;66117;-41
2022/11/11 04:00:40;;;;;;;12.82;11.82;;;;;;;32.28;66.85;100995.84;4999128;28;69296;-40
2022/11/11 04:16:07;;;;;;;13.50;12.40;;;;;;;32.03;66.47;100911.81;5000230;28;66152;-41
2022/11/11 04:22:04;;;;;;;13.82;12.40;;;;;;;32.33;66.08;100941.72;4997870;28;65793;-41
2022/11/11 04:31:09;;;;;;;12.68;11.77;;;;;;;32.44;66.00;100924.66;4992422;28;69765;-42
2022/11/11 04:33:58;;;;;;;12.82;11.63;;;;;;;32.45;65.97;100920.84;4988925;28;65911;-41
2022/11/11 04:36:47;;;;;;;13.80;12.52;;;;;;;32.45;65.80;100904.56;4996459;28;70514;-41
2022/11/11 04:42:43;;;;;;;15.18;13.13;;;;;;;32.17;65.57;100861.75;4994910;28;70578;-42
2022/11/11 04:45:34;;;;;;;15.00;13.25;;;;;;;32.53;65.52;100911.59;4991838;28;66134;-40
2022/11/11 04:48:24;;;;;;;16.73;13.80;;;;;;;32.56;65.04;100915.75;5000944;28;69831;-41
2022/11/11 04:51:13;;;;;;;14.32;12.85;;;;;;;32.58;64.97;100902.78;5001203;28;65859;-41
2022/11/11 04:54:01;;;;;;;16.65;13.25;;;;;;;32.61;64.79;100896.88;4994784;28;69508;-41
2022/11/11 04:56:52;;;;;;;18.92;13.20;;;;;;;32.53;65.01;100879.00;4999173;28;65698;-41
2022/11/11 04:59:42;;;;;;;13.50;12.10;;;;;;;32.61;64.53;100869.72;4997735;28;69521;-41
2022/11/11 05:08:54;;;;;;;12.27;11.25;;;;;;;32.31;64.20;100805.38;5001807;28;66253;-40
2022/11/11 05:11:44;;;;;;;15.07;11.68;;;;;;;32.69;64.09;100861.22;4993335;28;69699;-40
2022/11/11 05:21:19;;;;;;;11.82;10.85;;;;;;;32.63;63.69;100840.44;4998508;28;69886;-43
2022/11/11 05:21:22;;;;;;;12.82;11.45;;;;;;;32.76;63.76;100856.50;4996672;28;66293;-42
2022/11/11 05:27:20;;;;;;;12.30;11.02;;;;;;;32.81;63.55;100842.22;4998847;28;66118;-42
2022/11/11 05:30:12;;;;;;;14.80;11.20;;;;;;;32.84;63.29;100829.00;4998912;28;70237;-40
2022/11/11 05:33:02;;;;;;;14.68;11.10;;;;;;;32.83;63.35;100827.34;4994513;28;65161;-43
2022/11/11 05:35:51;;;;;;;12.48;10.85;;;;;;;32.88;63.44;100826.66;4997355;28;70292;-44
2022/11/11 05:38:41;;;;;;;11.27;10.35;;;;;;;32.54;63.38;100761.22;4999419;28;66373;-41
2022/11/11 05:41:30;;;;;;;12.15;10.98;;;;;;;32.82;63.23;100795.81;4993043;28;70083;-42
2022/11/11 05:44:19;;;;;;;12.27;11.07;;;;;;;32.93;63.66;100800.44;4999843;28;66728;-42
2022/11/11 05:47:08;;;;;;;11.88;10.75;;;;;;;32.96;63.67;100812.72;4998532;28;70646;-42
2022/11/11 05:49:58;;;;;;;10.68;9.88;;;;;;;32.99;63.60;100805.97;4995624;28;66334;-42
2022/11/11 05:52:49;;;;;;;11.00;10.00;;;;;;;32.90;63.13;100781.91;4991726;28;69278;-42
2022/11/11 05:55:39;;;;;;;11.32;9.98;;;;;;;33.03;63.70;100801.75;4996876;28;66957;-41
2022/11/11 05:58:28;;;;;;;14.00;10.23;;;;;;;32.99;63.18;100778.78;4995168;28;69880;-41
2022/11/11 06:01:17;;;;;;;11.93;10.73;;;;;;;33.04;63.34;100776.22;4996440;28;66685;-41
2022/11/11 06:04:07;;;;;;;11.75;10.38;;;;;;;33.10;63.33;100775.28;4995517;28;69522;-42
2022/11/11 06:07:04;;;;;;;11.82;10.38;;;;;;;33.03;63.25;100758.28;4993535;28;66557;-43
2022/11/11 06:10:29;;;;;;;12.57;10.93;;;;;;;33.15;63.20;100767.22;4993787;28;70219;-43
2022/11/11 06:13:08;;;;;;;11.98;9.52;;;;;;;33.02;63.20;100737.63;4996528;28;65534;-43
2022/11/11 06:15:59;;;;;;;11.10;9.88;;;;;;;33.05;63.53;100734.41;4996776;28;70074;-42
2022/11/11 06:18:49;;;;;;;11.68;9.88;;;;;;;33.22;63.38;100746.19;4994932;28;66301;-44
2022/11/11 06:21:56;;;;;;;10.57;9.55;;;;;;;33.23;63.54;100752.44;4998217;28;71088;-42
2022/11/11 06:26:11;;;;;;;10.90;9.52;;;;;;;33.25;63.52;100755.75;4995677;28;65568;-41
2022/11/11 06:27:54;;;;;;;10.15;9.15;;;;;;;33.27;63.23;100756.34;4995343;28;70718;-41
2022/11/11 06:30:44;;;;;;;10.85;9.88;;;;;;;33.22;63.44;100743.47;4996628;28;66605;-42
2022/11/11 06:33:38;;;;;;;10.30;9.40;;;;;;;33.30;63.60;100740.38;5010378;28;69453;-41
2022/11/11 06:36:27;;;;;;;10.95;9.90;;;;;;;33.24;63.35;100727.75;4993413;28;66234;-41
2022/11/11 06:39:16;;;;;;;12.68;10.30;;;;;;;33.25;63.34;100723.97;4996907;28;69756;-42
2022/11/11 06:42:06;;;;;;;10.45;9.45;;;;;;;33.33;63.13;100741.81;4999028;28;66519;-41
2022/11/11 06:44:55;;;;;;;11.50;9.35;;;;;;;33.29;63.05;100730.59;4999436;28;70804;-40
2022/11/11 06:47:44;;;;;;;9.88;9.18;;;;;;;33.37;63.33;100727.47;4989064;28;66540;-41
2022/11/11 06:50:34;;;;;;;11.02;10.18;;;;;;;33.38;63.46;100729.13;4995881;28;69448;-41
2022/11/11 06:53:23;;;;;;;10.55;9.65;;;;;;;33.40;63.64;100725.34;4997657;28;65711;-41
2022/11/11 06:56:12;;;;;;;13.68;9.90;;;;;;;33.42;63.74;100728.66;4989093;28;70468;-41
2022/11/11 06:59:01;;;;;;;15.45;10.35;;;;;;;33.36;63.62;100708.69;4996926;28;65427;-42
2022/11/11 07:01:51;;;;;;;12.25;11.05;;;;;;;33.44;63.55;100713.75;4986178;28;69930;-43
2022/11/11 07:04:40;;;;;;;13.85;10.93;;;;;;;33.44;63.41;100716.47;4999223;28;65413;-41
2022/11/11 07:07:30;;;;;;;16.48;10.27;;;;;;;33.40;63.33;100703.59;4997115;28;70404;-42
2022/11/11 07:10:19;;;;;;;13.68;10.40;;;;;;;33.49;63.57;100718.44;4998398;28;67106;-41
2022/11/11 07:13:09;;;;;;;19.17;11.63;;;;;;;33.46;63.75;100697.19;4999938;28;70154;-42
2022/11/11 07:15:58;;;;;;;19.05;10.88;;;;;;;33.54;63.62;100710.41;4998983;28;66380;-42
2022/11/11 07:18:47;;;;;;;11.60;10.40;;;;;;;33.56;63.13;100702.84;4994805;28;70147;-42
2022/11/11 07:21:36;;;;;;;13.63;9.88;;;;;;;33.56;63.16;100703.66;4999528;28;65175;-44
2022/11/11 07:24:26;;;;;;;15.32;9.70;;;;;;;33.58;63.47;100696.09;4992122;28;70344;-42
2022/11/11 07:27:16;;;;;;;11.40;10.32;;;;;;;33.63;63.16;100699.97;4994766;28;66091;-42
2022/11/11 07:30:06;;;;;;;15.30;9.57;;;;;;;33.63;62.90;100699.97;5002292;28;69679;-41
2022/11/11 07:32:56;;;;;;;16.67;9.70;;;;;;;33.64;63.13;100697.03;5000238;28;65546;-43
2022/11/11 07:35:46;;;;;;;13.32;9.93;;;;;;;33.64;62.87;100683.41;4994902;28;70184;-41
2022/11/11 07:38:35;;;;;;;11.63;9.80;;;;;;;33.65;63.33;100685.06;4999477;28;66713;-45
2022/11/11 07:41:24;;;;;;;15.35;10.35;;;;;;;33.66;63.26;100686.72;5001779;28;69803;-41
2022/11/11 07:44:13;;;;;;;13.43;9.73;;;;;;;33.46;63.25;100648.22;4994073;28;66478;-41
2022/11/11 07:47:02;;;;;;;15.95;10.32;;;;;;;33.71;63.07;100678.66;5001816;28;69960;-40
2022/11/11 07:49:51;;;;;;;12.13;8.98;;;;;;;33.73;62.87;100676.50;4992254;28;66943;-40
2022/11/11 07:52:40;;;;;;;14.43;10.32;;;;;;;33.74;62.99;100666.44;5001569;28;70276;-43
2022/11/11 07:55:29;;;;;;;12.25;10.32;;;;;;;33.69;62.20;100658.22;5000923;28;65974;-40
2022/11/11 07:58:19;;;;;;;10.82;9.73;;;;;;;33.81;62.24;100662.50;4999651;28;69719;-39
2022/11/11 08:01:08;;;;;;;11.05;9.50;;;;;;;33.75;62.11;100649.06;5000349;28;66571;-41
2022/11/11 08:03:58;;;;;;;10.40;9.35;;;;;;;33.85;62.15;100664.72;4997803;28;70255;-40
2022/11/11 08:06:47;;;;;;;14.75;9.82;;;;;;;33.86;62.26;100661.78;4998147;28;66011;-39
2022/11/11 08:09:36;;;;;;;10.13;9.23;;;;;;;33.87;61.94;100662.59;5000172;28;69116;-41
2022/11/11 08:15:32;;;;;;;12.30;8.80;;;;;;;33.89;61.99;100647.69;4999301;28;70569;-40
2022/11/11 08:18:21;;;;;;;12.30;9.45;;;;;;;33.93;61.86;100662.44;4995828;28;66511;-40
2022/11/11 08:21:11;;;;;;;12.63;9.13;;;;;;;33.75;61.86;100630.84;4996791;28;69569;-40
2022/11/11 08:24:00;;;;;;;11.30;9.27;;;;;;;33.75;61.75;100625.41;5000896;28;66179;-40
2022/11/11 08:27:09;;;;;;;13.85;8.80;;;;;;;33.98;61.68;100662.50;4999239;28;70465;-40
2022/11/11 08:29:58;;;;;;;10.52;9.13;;;;;;;34.02;61.76;100657.44;4999032;28;66019;-40
2022/11/11 08:32:48;;;;;;;10.48;9.13;;;;;;;33.93;61.97;100642.56;4999416;28;71012;-40
2022/11/11 08:35:59;;;;;;;10.32;9.35;;;;;;;34.02;61.54;100651.97;4999592;28;66291;-42
2022/11/11 08:38:48;;;;;;;9.20;8.27;;;;;;;34.07;61.70;100659.41;4999909;28;69771;-39
2022/11/11 08:41:38;;;;;;;9.98;9.00;;;;;;;34.09;61.35;100646.41;5000267;28;66624;-40
2022/11/11 08:44:27;;;;;;;10.55;9.60;;;;;;;33.81;61.83;100602.66;4998313;28;70099;-41
2022/11/11 08:47:16;;;;;;;10.63;9.27;;;;;;;34.12;61.39;100656.78;4995261;28;66668;-40
2022/11/11 08:50:06;;;;;;;9.70;8.80;;;;;;;34.05;60.90;100637.91;4994739;28;70258;-41
2022/11/11 08:52:55;;;;;;;9.48;8.65;;;;;;;34.14;61.24;100658.19;4997257;28;65788;-41
2022/11/11 08:55:45;;;;;;;13.02;9.60;;;;;;;34.16;61.41;100653.31;4996490;28;70132;-41
2022/11/11 08:58:34;;;;;;;13.80;9.18;;;;;;;34.17;61.21;100648.69;4997630;28;66775;-39
2022/11/11 09:01:23;;;;;;;11.75;9.18;;;;;;;34.18;61.12;100650.34;4999649;28;69848;-40
2022/11/11 09:04:12;;;;;;;10.00;9.00;;;;;;;34.17;61.00;100654.16;5000150;28;65937;-38
2022/11/11 09:07:22;;;;;;;9.85;8.82;;;;;;;34.11;60.97;100645.06;4998866;28;70191;-40
2022/11/11 09:10:11;;;;;;;8.60;7.95;;;;;;;34.06;60.98;100639.53;4992751;28;66361;-39
2022/11/11 09:13:01;;;;;;;11.93;9.38;;;;;;;34.18;61.04;100658.50;4997405;28;70329;-40
2022/11/11 09:15:53;;;;;;;10.07;8.73;;;;;;;34.14;60.20;100669.06;4999551;28;66547;-40
2022/11/11 09:18:42;;;;;;;10.32;9.25;;;;;;;34.13;61.09;100658.41;4995805;28;70492;-41
2022/11/11 09:21:32;;;;;;;12.18;9.57;;;;;;;34.07;61.31;100673.03;4997103;28;66937;-42
2022/11/11 09:24:21;;;;;;;16.15;9.30;;;;;;;33.92;62.10;100676.28;4995928;28;70574;-42
2022/11/11 09:27:11;;;;;;;19.80;10.05;;;;;;;33.67;62.68;100654.91;4996417;28;66430;-42
2022/11/11 09:30:00;;;;;;;24.98;9.90;;;;;;;33.68;62.74;100679.13;4996259;28;70084;-41
2022/11/11 09:32:49;;;;;;;10.25;8.05;;;;;;;33.61;63.32;100677.66;4998424;28;66531;-44
2022/11/11 09:35:38;;;;;;;15.15;8.55;;;;;;;33.50;63.54;100680.13;4994997;28;70106;-39
2022/11/11 09:38:27;;;;;;;15.68;8.40;;;;;;;33.48;63.72;100685.00;4997052;28;65740;-41
2022/11/11 09:41:35;;;;;;;18.80;8.45;;;;;;;33.03;63.66;100622.41;4995885;28;70173;-42
2022/11/11 09:44:30;;;;;;;13.70;8.38;;;;;;;33.45;64.32;100698.25;4996287;28;65979;-42
2022/11/11 09:47:42;;;;;;;15.68;8.63;;;;;;;33.24;64.88;100684.28;4994788;28;69708;-45
2022/11/11 09:50:34;;;;;;;10.48;7.72;;;;;;;33.29;64.72;100689.81;4995733;28;66400;-42
2022/11/11 09:53:36;;;;;;;11.35;8.05;;;;;;;33.35;65.00;100707.88;4996364;28;69660;-41
2022/11/11 09:56:26;;;;;;;11.00;8.63;;;;;;;33.26;65.15;100700.31;4996270;28;65655;-43
2022/11/11 09:59:30;;;;;;;12.45;7.93;;;;;;;32.47;65.25;100576.69;4991602;28;69948;-40
2022/11/11 10:02:40;;;;;;;15.77;7.55;;;;;;;32.86;65.43;100658.44;4994687;28;66235;-40
2022/11/11 10:05:56;;;;;;;20.17;14.85;;;;;;;33.24;65.82;100722.31;4993487;28;69903;-41
2022/11/11 10:09:13;;;;;;;20.50;17.83;;;;;;;33.18;65.94;100723.25;4995747;28;65806;-40
2022/11/11 10:12:17;;;;;;;24.42;19.67;;;;;;;32.70;66.03;100656.47;4994322;28;70409;-40
2022/11/11 10:15:13;;;;;;;30.85;22.42;;;;;;;33.22;66.00;100735.31;4996753;28;65307;-43
2022/11/11 10:18:06;;;;;;;31.77;24.17;;;;;;;33.20;66.21;100737.44;5009845;28;68578;-42
2022/11/11 10:21:11;;;;;;;35.88;26.90;;;;;;;32.74;66.45;100668.50;4992125;28;66035;-41
2022/11/11 10:24:05;;;;;;;42.50;27.98;;;;;;;33.20;66.34;100737.44;4995865;28;70147;-43
2022/11/11 10:26:54;;;;;;;41.63;29.90;;;;;;;33.11;66.52;100733.44;4996862;28;66705;-39
2022/11/11 10:29:44;;;;;;;51.55;30.27;;;;;;;33.17;67.03;100745.25;4997024;28;69632;-42
2022/11/11 10:32:35;;;;;;;49.35;28.13;;;;;;;33.12;67.84;100740.53;4995126;28;65366;-40
2022/11/11 10:35:26;;;;;;;;;;;;;;;32.89;68.80;100755.78;4998006;28;70450;-43
2022/11/11 10:38:46;;;;;;;38.83;21.50;;;;;;;33.11;66.63;100749.75;4996846;28;67203;-45
2022/11/11 10:41:44;;;;;;;42.70;26.23;;;;;;;32.91;66.31;100731.09;4992712;28;68926;-45
2022/11/11 10:44:36;;;;;;;46.80;25.15;;;;;;;32.97;66.74;100749.16;4997640;28;65973;-45
2022/11/11 10:47:44;;;;;;;43.33;21.48;;;;;;;32.92;66.36;100758.00;4992711;28;70458;-40
2022/11/11 10:50:39;;;;;;;51.45;19.33;;;;;;;32.94;65.67;100750.44;4990009;28;66049;-42
2022/11/11 10:53:56;;;;;;;40.40;16.63;;;;;;;32.85;64.56;100756.50;4989531;28;70715;-44
2022/11/11 10:57:22;;;;;;;53.97;29.98;;;;;;;32.75;64.18;100762.50;4996499;28;66815;-41
2022/11/11 11:00:15;;;;;;;55.60;25.25;;;;;;;32.82;64.27;100763.22;5001422;28;70282;-44
2022/11/11 11:03:14;;;;;;;37.60;22.02;;;;;;;32.80;64.65;100765.34;5002851;28;66536;-43
2022/11/11 11:06:08;;;;;;;53.63;29.95;;;;;;;32.78;66.54;100762.03;5001820;28;69482;-40
2022/11/11 11:09:19;;;;;;;62.15;37.35;;;;;;;32.43;67.45;100703.09;5002355;28;65841;-42
2022/11/11 11:12:24;;;;;;;68.05;40.28;;;;;;;32.85;67.73;100768.19;4994234;28;70257;-47
2022/11/11 11:15:19;;;;;;;65.22;36.75;;;;;;;32.06;68.70;100623.75;4997548;28;66280;-43
2022/11/11 11:18:13;;;;;;;54.88;27.50;;;;;;;32.92;68.23;100758.00;4999052;28;70747;-42
2022/11/11 11:21:05;;;;;;;49.47;22.70;;;;;;;32.88;67.83;100773.16;4999478;28;65559;-43
2022/11/11 11:23:54;;;;;;;34.75;19.83;;;;;;;32.86;67.71;100775.25;4999527;28;70617;-43
2022/11/11 11:26:46;;;;;;;25.02;16.85;;;;;;;32.85;67.55;100776.34;5001132;28;66357;-44
2022/11/11 11:29:43;;;;;;;28.30;17.48;;;;;;;32.62;67.69;100741.00;5002967;28;69711;-45
2022/11/11 11:32:33;;;;;;;38.50;15.32;;;;;;;32.83;67.55;100792.03;4998408;28;66694;-44
2022/11/11 11:35:45;;;;;;;25.58;13.60;;;;;;;32.74;67.67;100789.91;4996782;28;70023;-45
2022/11/11 11:38:43;;;;;;;24.57;12.43;;;;;;;32.46;67.58;100732.50;5000039;28;66506;-45
2022/11/11 11:41:41;;;;;;;23.38;11.02;;;;;;;31.91;67.63;100662.19;4990876;28;69954;-43
2022/11/11 11:44:31;;;;;;;19.17;10.50;;;;;;;32.38;67.71;100734.72;4995113;28;66019;-43
2022/11/11 11:47:47;;;;;;;12.68;9.25;;;;;;;32.74;67.95;100798.91;4994847;28;68651;-43
2022/11/11 11:51:20;;;;;;;21.15;9.45;;;;;;;32.65;67.89;100801.13;4989968;28;66583;-44
2022/11/11 11:54:36;;;;;;;17.38;9.00;;;;;;;32.63;67.86;100803.25;4996465;28;69713;-43
2022/11/11 11:58:00;;;;;;;15.50;8.30;;;;;;;32.64;67.78;100794.03;5014625;28;66219;-42
2022/11/11 12:01:10;;;;;;;15.43;7.63;;;;;;;32.23;67.73;100735.16;4999291;28;70351;-43
2022/11/11 12:04:24;;;;;;;20.10;9.23;;;;;;;32.68;68.64;100786.22;4997945;28;65791;-42
2022/11/11 12:07:47;;;;;;;18.23;9.05;;;;;;;32.69;69.80;100798.75;5007664;28;69419;-43
2022/11/11 12:10:49;;;;;;;;;;;;;;;32.47;70.65;100798.50;4997725;28;66357;-41
2022/11/11 12:14:09;;;;;;;26.38;8.95;;;;;;;32.52;68.58;100792.38;4997735;28;70281;-42
2022/11/11 12:17:18;;;;;;;15.48;8.15;;;;;;;31.96;67.55;100722.00;4999207;28;66773;-40
2022/11/11 12:20:16;;;;;;;14.63;7.57;;;;;;;32.42;66.67;100799.16;4998507;28;70161;-41
2022/11/11 12:23:05;;;;;;;16.52;6.63;;;;;;;32.34;66.44;100801.38;4997243;28;66350;-43
2022/11/11 12:26:11;;;;;;;30.40;7.28;;;;;;;32.27;65.93;100809.63;4999649;28;70382;-43
2022/11/11 12:29:12;;;;;;;17.40;6.60;;;;;;;32.24;65.51;100805.50;5000620;28;66830;-41
2022/11/11 12:32:25;;;;;;;32.30;6.57;;;;;;;32.10;64.36;100803.22;4999333;28;69602;-40
2022/11/11 12:35:33;;;;;;;17.98;6.13;;;;;;;32.13;63.74;100805.47;4999872;28;66844;-40
2022/11/11 12:38:37;;;;;;;18.35;6.57;;;;;;;32.08;63.51;100810.75;5000894;28;70816;-40
2022/11/11 12:41:37;;;;;;;15.20;5.22;;;;;;;32.05;63.41;100812.03;4982604;28;66103;-42
2022/11/11 12:44:41;;;;;;;19.05;6.53;;;;;;;31.95;63.69;100806.31;4991544;28;70538;-41
2022/11/11 12:47:59;;;;;;;13.45;5.97;;;;;;;31.99;63.46;100819.19;4994831;28;66301;-41
2022/11/11 12:50:54;;;;;;;9.98;5.10;;;;;;;31.97;62.31;100820.50;4989477;28;69670;-42
2022/11/11 12:54:11;;;;;;;12.85;5.78;;;;;;;31.88;60.87;100819.94;4993852;28;65401;-43
2022/11/11 12:57:25;;;;;;;8.40;4.82;;;;;;;31.81;59.48;100827.34;5010003;28;70631;-44
2022/11/11 13:00:25;;;;;;;13.90;4.85;;;;;;;31.78;58.43;100823.19;4998769;28;66700;-42
2022/11/11 13:03:31;;;;;;;13.52;4.55;;;;;;;31.30;57.93;100744.50;4999691;28;70139;-43
2022/11/11 13:06:38;;;;;;;5.03;4.28;;;;;;;31.17;57.09;100748.19;4999176;28;65794;-44
2022/11/11 13:09:27;;;;;;;5.10;4.60;;;;;;;31.68;56.17;100819.34;4996732;28;69691;-44
2022/11/11 13:12:24;;;;;;;6.68;4.65;;;;;;;31.27;56.22;100753.09;5000076;28;65726;-42
2022/11/11 13:15:25;;;;;;;4.85;4.35;;;;;;;31.60;54.76;100815.91;4998949;28;70536;-45
2022/11/11 13:18:52;;;;;;;6.85;4.13;;;;;;;31.52;54.37;100813.50;4998905;28;65329;-43
2022/11/11 13:22:00;;;;;;;5.32;4.40;;;;;;;31.34;53.78;100778.22;4998384;28;70390;-44
2022/11/11 13:24:52;;;;;;;3.80;3.50;;;;;;;31.05;53.54;100731.84;4997901;28;65412;-44
2022/11/11 13:27:59;;;;;;;4.07;3.78;;;;;;;31.03;52.80;100733.94;4996237;28;70492;-41
2022/11/11 13:31:06;;;;;;;3.60;3.30;;;;;;;31.39;52.61;100795.50;4997602;28;66045;-44
2022/11/11 13:34:02;;;;;;;3.90;3.25;;;;;;;31.04;52.70;100741.06;4999361;28;70090;-44
2022/11/11 13:36:55;;;;;;;2.92;2.72;;;;;;;30.58;51.69;100662.94;4999127;28;66509;-41
2022/11/11 13:39:48;;;;;;;3.67;3.35;;;;;;;31.39;51.72;100805.50;4982311;28;69315;-42
2022/11/11 13:42:51;;;;;;;3.15;2.85;;;;;;;31.08;51.92;100766.63;4997341;28;65362;-42
2022/11/11 13:45:49;;;;;;;4.38;3.97;;;;;;;31.26;51.38;100802.91;4996857;28;68787;-42
2022/11/11 13:48:46;;;;;;;4.13;3.78;;;;;;;30.83;50.60;100717.09;4996360;28;66237;-41
2022/11/11 13:51:38;;;;;;;3.17;2.88;;;;;;;31.32;50.23;100802.03;5000150;28;70749;-43
2022/11/11 13:54:40;;;;;;;3.40;3.10;;;;;;;31.26;49.85;100819.16;4997558;28;66360;-43
2022/11/11 13:57:34;;;;;;;3.60;3.30;;;;;;;29.67;50.01;100554.28;4998963;28;70540;-43
2022/11/11 14:00:34;;;;;;;3.13;2.92;;;;;;;31.24;50.00;100816.69;4998141;28;65975;-42
2022/11/11 14:03:25;;;;;;;5.45;3.03;;;;;;;31.24;49.00;100805.03;4995900;28;70455;-42
2022/11/11 14:06:15;;;;;;;3.65;3.35;;;;;;;31.18;48.85;100806.75;4999036;28;66376;-42
2022/11/11 14:09:05;;;;;;;2.78;2.58;;;;;;;31.19;48.89;100818.44;4998129;28;69377;-44
2022/11/11 14:12:20;;;;;;;2.80;2.60;;;;;;;31.09;49.00;100824.34;4998100;28;65695;-44
2022/11/11 14:15:48;;;;;;;3.40;3.10;;;;;;;31.17;52.32;100815.94;4995469;28;69888;-45
2022/11/11 14:18:42;;;;;;;11.98;5.13;;;;;;;31.36;59.01;100822.22;4996424;28;65850;-46
2022/11/11 14:22:00;;;;;;;9.30;5.43;;;;;;;31.38;60.90;100828.25;4998423;28;70575;-45
2022/11/11 14:24:49;;;;;;;12.27;5.65;;;;;;;31.19;61.23;100769.66;4996317;28;65780;-43
2022/11/11 14:27:45;;;;;;;12.43;5.50;;;;;;;31.09;62.38;100748.47;4996493;28;69521;-44
2022/11/11 14:30:36;;;;;;;7.82;4.38;;;;;;;31.63;62.50;100830.06;4996101;28;66113;-45
2022/11/11 14:33:44;;;;;;;7.13;4.53;;;;;;;31.56;61.97;100839.09;5000056;28;69622;-45
2022/11/11 14:36:57;;;;;;;6.00;4.55;;;;;;;31.55;60.45;100834.72;5001852;28;65760;-43
2022/11/11 14:39:54;;;;;;;8.00;5.13;;;;;;;31.40;59.08;100823.44;5001031;28;70547;-44
2022/11/11 14:42:45;;;;;;;4.72;4.05;;;;;;;31.37;58.37;100826.59;4999276;28;65167;-42